createdAt,value
2017-11-11T00:02:01.056Z,7.20
2017-11-11T00:04:28.701Z,7.22
2017-11-11T00:06:56.343Z,7.23
2017-11-11T00:09:23.975Z,7.23
2017-11-11T00:11:51.631Z,7.25
2017-11-11T00:14:19.275Z,7.24
2017-11-11T00:16:46.915Z,7.25
2017-11-11T00:19:14.531Z,7.23
2017-11-11T00:21:42.161Z,7.29
2017-11-11T00:24:09.778Z,7.25
2017-11-11T00:26:37.488Z,7.26
2017-11-11T00:29:05.088Z,7.21
2017-11-11T00:31:32.803Z,7.21
2017-11-11T00:34:00.418Z,7.21
2017-11-11T00:36:28.071Z,7.25
2017-11-11T00:38:55.668Z,7.26
2017-11-11T00:41:23.270Z,7.27
2017-11-11T00:43:50.902Z,7.24
2017-11-11T00:46:18.567Z,7.26
2017-11-11T00:48:46.218Z,7.27
2017-11-11T00:51:13.870Z,7.28
2017-11-11T00:53:41.555Z,7.28
2017-11-11T00:56:09.163Z,7.30
2017-11-11T00:58:36.825Z,7.32
2017-11-11T01:01:04.431Z,7.34
2017-11-11T01:03:32.187Z,7.36
2017-11-11T01:05:59.811Z,7.37
2017-11-11T01:08:27.520Z,7.36
2017-11-11T01:10:55.198Z,7.38
2017-11-11T01:13:22.842Z,7.37
2017-11-11T01:15:50.447Z,7.40
2017-11-11T01:18:18.073Z,7.41
2017-11-11T01:20:45.697Z,7.43
2017-11-11T01:23:13.340Z,7.43
2017-11-11T01:25:40.939Z,7.44
2017-11-11T01:28:08.597Z,7.42
2017-11-11T01:30:36.189Z,7.39
2017-11-11T01:33:03.865Z,7.42
2017-11-11T01:35:31.530Z,7.41
2017-11-11T01:37:59.170Z,7.40
2017-11-11T01:40:26.773Z,7.41
2017-11-11T01:42:54.399Z,7.39
2017-11-11T01:45:21.998Z,7.38
2017-11-11T01:47:49.634Z,7.38
2017-11-11T01:50:17.267Z,7.37
2017-11-11T01:52:44.905Z,7.42
2017-11-11T01:55:12.590Z,7.41
2017-11-11T01:57:40.228Z,7.44
2017-11-11T02:00:07.846Z,7.45
2017-11-11T02:02:35.518Z,7.44
2017-11-11T02:05:03.112Z,7.42
2017-11-11T02:07:30.724Z,7.45
2017-11-11T02:09:58.337Z,7.45
2017-11-11T02:12:25.991Z,7.45
2017-11-11T02:14:53.598Z,7.43
2017-11-11T02:17:21.231Z,7.43
2017-11-11T02:19:48.843Z,7.48
2017-11-11T02:22:16.514Z,7.44
2017-11-11T02:24:44.118Z,7.45
2017-11-11T02:27:11.746Z,7.45
2017-11-11T02:29:39.398Z,7.47
2017-11-11T02:32:07.024Z,7.48
2017-11-11T02:34:34.635Z,7.49
2017-11-11T02:37:02.263Z,7.51
2017-11-11T02:39:29.863Z,7.50
2017-11-11T02:41:57.523Z,7.50
2017-11-11T02:44:25.121Z,7.53
2017-11-11T02:46:52.760Z,7.51
2017-11-11T02:49:20.356Z,7.53
2017-11-11T02:51:48.002Z,7.50
2017-11-11T02:54:15.614Z,7.50
2017-11-11T02:56:43.273Z,7.50
2017-11-11T02:59:10.888Z,7.48
2017-11-11T03:01:38.527Z,7.44
2017-11-11T03:04:06.132Z,7.44
2017-11-11T03:06:33.747Z,7.43
2017-11-11T03:09:01.348Z,7.40
2017-11-11T03:11:29.010Z,7.39
2017-11-11T03:13:56.606Z,7.38
2017-11-11T03:16:24.209Z,7.37
2017-11-11T03:18:51.851Z,7.37
2017-11-11T03:21:19.455Z,7.39
2017-11-11T03:23:47.141Z,7.38
2017-11-11T03:26:14.739Z,7.40
2017-11-11T03:28:42.374Z,7.38
2017-11-11T03:31:09.980Z,7.34
2017-11-11T03:33:37.627Z,7.36
2017-11-11T03:36:05.263Z,7.30
2017-11-11T03:38:32.915Z,7.33
2017-11-11T03:41:00.535Z,7.38
2017-11-11T03:43:28.207Z,7.39
2017-11-11T03:45:55.814Z,7.38
2017-11-11T03:48:23.466Z,7.38
2017-11-11T03:50:51.081Z,7.38
2017-11-11T03:53:18.724Z,7.42
2017-11-11T03:55:46.404Z,7.44
2017-11-11T03:58:14.034Z,7.43
2017-11-11T04:00:41.658Z,7.45
2017-11-11T04:03:09.302Z,7.48
2017-11-11T04:05:36.913Z,7.48
2017-11-11T04:08:04.602Z,7.50
2017-11-11T04:10:32.239Z,7.54
2017-11-11T04:12:59.868Z,7.56
2017-11-11T04:15:27.469Z,7.57
2017-11-11T04:17:55.104Z,7.56
2017-11-11T04:20:22.733Z,7.57
2017-11-11T04:22:50.383Z,7.57
2017-11-11T04:25:17.992Z,7.55
2017-11-11T04:27:45.623Z,7.59
2017-11-11T04:30:13.230Z,7.61
2017-11-11T04:32:40.863Z,7.61
2017-11-11T04:35:08.471Z,7.61
2017-11-11T04:37:36.107Z,7.68
2017-11-11T04:40:03.710Z,7.68
2017-11-11T04:42:31.343Z,7.71
2017-11-11T04:44:58.955Z,7.73
2017-11-11T04:47:26.588Z,7.73
2017-11-11T04:49:54.251Z,7.73
2017-11-11T04:52:21.895Z,7.72
2017-11-11T04:54:49.521Z,7.65
2017-11-11T04:57:17.159Z,7.70
2017-11-11T04:59:44.766Z,7.71
2017-11-11T05:02:12.398Z,7.72
2017-11-11T05:04:40.019Z,7.73
2017-11-11T05:07:07.658Z,7.75
2017-11-11T05:09:35.590Z,7.74
2017-11-11T05:12:03.231Z,7.80
2017-11-11T05:14:30.937Z,7.79
2017-11-11T05:16:58.574Z,7.81
2017-11-11T05:19:26.188Z,7.82
2017-11-11T05:21:53.823Z,7.81
2017-11-11T05:24:21.423Z,7.79
2017-11-11T05:26:49.071Z,7.82
2017-11-11T05:29:16.693Z,7.85
2017-11-11T05:31:44.322Z,7.85
2017-11-11T05:34:11.918Z,7.87
2017-11-11T05:36:39.568Z,7.90
2017-11-11T05:39:07.191Z,7.88
2017-11-11T05:41:34.824Z,7.92
2017-11-11T05:44:02.458Z,7.91
2017-11-11T05:46:30.168Z,7.91
2017-11-11T05:48:57.817Z,7.90
2017-11-11T05:51:25.426Z,7.89
2017-11-11T05:53:53.066Z,7.89
2017-11-11T05:56:20.711Z,7.91
2017-11-11T05:58:48.346Z,7.93
2017-11-11T06:01:15.982Z,7.96
2017-11-11T06:03:43.657Z,7.98
2017-11-11T06:06:11.316Z,7.99
2017-11-11T06:08:38.982Z,8.02
2017-11-11T06:11:06.611Z,8.03
2017-11-11T06:13:34.258Z,8.05
2017-11-11T06:16:01.875Z,8.05
2017-11-11T06:18:29.602Z,8.05
2017-11-11T06:20:57.206Z,8.07
2017-11-11T06:23:24.835Z,8.07
2017-11-11T06:25:52.434Z,8.13
2017-11-11T06:28:20.074Z,8.12
2017-11-11T06:30:47.698Z,8.08
2017-11-11T06:33:15.378Z,8.09
2017-11-11T06:35:43.004Z,8.11
2017-11-11T06:38:10.744Z,8.12
2017-11-11T06:40:38.352Z,8.08
2017-11-11T06:43:05.987Z,8.09
2017-11-11T06:45:33.598Z,8.09
2017-11-11T06:48:01.239Z,8.10
2017-11-11T06:50:28.849Z,8.12
2017-11-11T06:52:56.478Z,8.11
2017-11-11T06:55:24.079Z,8.12
2017-11-11T06:57:51.739Z,8.12
2017-11-11T07:00:19.452Z,8.11
2017-11-11T07:02:47.087Z,8.08
2017-11-11T07:05:14.698Z,8.05
2017-11-11T07:07:42.332Z,8.05
2017-11-11T07:10:09.966Z,8.09
2017-11-11T07:12:37.610Z,8.13
2017-11-11T07:15:05.232Z,8.12
2017-11-11T07:17:32.849Z,8.09
2017-11-11T07:20:00.477Z,8.10
2017-11-11T07:22:28.103Z,8.13
2017-11-11T07:24:55.759Z,8.14
2017-11-11T07:27:23.368Z,8.13
2017-11-11T07:29:51.126Z,8.14
2017-11-11T07:32:18.741Z,8.14
2017-11-11T07:34:46.380Z,8.17
2017-11-11T07:37:13.990Z,8.18
2017-11-11T07:39:41.647Z,8.20
2017-11-11T07:42:09.259Z,8.20
2017-11-11T07:44:36.912Z,8.19
2017-11-11T07:47:04.516Z,8.20
2017-11-11T07:49:32.159Z,8.21
2017-11-11T07:51:59.786Z,8.24
2017-11-11T07:54:27.422Z,8.27
2017-11-11T07:56:55.025Z,8.28
2017-11-11T07:59:22.663Z,8.33
2017-11-11T08:01:50.279Z,8.32
2017-11-11T08:04:17.960Z,8.31
2017-11-11T08:06:45.579Z,8.32
2017-11-11T08:09:13.206Z,8.29
2017-11-11T08:11:40.839Z,8.27
2017-11-11T08:14:08.435Z,8.28
2017-11-11T08:16:36.090Z,8.28
2017-11-11T08:19:03.714Z,8.30
2017-11-11T08:21:31.374Z,8.29
2017-11-11T08:23:58.998Z,8.24
2017-11-11T08:26:26.671Z,8.25
2017-11-11T08:28:54.287Z,8.21
2017-11-11T08:31:21.966Z,8.15
2017-11-11T08:33:49.597Z,8.11
2017-11-11T08:36:17.249Z,8.09
2017-11-11T08:38:44.899Z,8.07
2017-11-11T08:41:12.520Z,8.07
2017-11-11T08:43:40.142Z,8.08
2017-11-11T08:46:07.754Z,8.06
2017-11-11T08:48:35.388Z,8.08
2017-11-11T08:51:03.065Z,8.06
2017-11-11T08:53:30.703Z,8.08
2017-11-11T08:55:58.350Z,8.08
2017-11-11T08:58:25.997Z,8.09
2017-11-11T09:00:53.604Z,8.11
2017-11-11T09:03:21.302Z,8.09
2017-11-11T09:05:48.926Z,8.11
2017-11-11T09:08:16.544Z,8.05
2017-11-11T09:10:44.175Z,8.03
2017-11-11T09:13:11.774Z,8.06
2017-11-11T09:15:39.417Z,8.04
2017-11-11T09:18:07.014Z,8.07
2017-11-11T09:20:34.643Z,8.07
2017-11-11T09:23:02.246Z,8.04
2017-11-11T09:25:29.928Z,8.05
2017-11-11T09:27:57.534Z,8.07
2017-11-11T09:30:25.209Z,8.03
2017-11-11T09:32:52.820Z,8.05
2017-11-11T09:35:20.552Z,8.06
2017-11-11T09:37:48.150Z,8.02
2017-11-11T09:40:15.861Z,8.00
2017-11-11T09:42:43.459Z,7.95
2017-11-11T09:45:11.170Z,7.90
2017-11-11T09:47:38.779Z,7.89
2017-11-11T09:50:06.558Z,7.79
2017-11-11T09:52:34.223Z,7.73
2017-11-11T09:55:01.833Z,7.76
2017-11-11T09:57:29.472Z,7.77
2017-11-11T09:59:57.131Z,7.79
2017-11-11T10:02:24.723Z,7.79
2017-11-11T10:04:52.371Z,7.74
2017-11-11T10:07:19.991Z,7.68
2017-11-11T10:09:47.607Z,7.69
2017-11-11T10:12:15.251Z,7.70
2017-11-11T10:14:42.857Z,7.66
2017-11-11T10:17:10.488Z,7.66
2017-11-11T10:19:38.122Z,7.66
2017-11-11T10:22:05.760Z,7.65
2017-11-11T10:24:33.373Z,7.65
2017-11-11T10:27:01.067Z,7.59
2017-11-11T10:29:28.682Z,7.60
2017-11-11T10:31:56.363Z,7.67
2017-11-11T10:34:23.963Z,7.67
2017-11-11T10:36:51.607Z,7.68
2017-11-11T10:39:19.234Z,7.64
2017-11-11T10:41:46.874Z,7.66
2017-11-11T10:44:14.495Z,7.67
2017-11-11T10:46:42.150Z,7.72
2017-11-11T10:49:09.760Z,7.72
2017-11-11T10:51:37.413Z,7.71
2017-11-11T10:54:05.031Z,7.74
2017-11-11T10:56:32.688Z,7.78
2017-11-11T10:59:00.319Z,7.76
2017-11-11T11:01:27.958Z,7.71
2017-11-11T11:03:55.578Z,7.73
2017-11-11T11:06:23.210Z,7.71
2017-11-11T11:08:50.915Z,7.67
2017-11-11T11:11:18.574Z,7.67
2017-11-11T11:13:46.182Z,7.63
2017-11-11T11:16:13.833Z,7.60
2017-11-11T11:18:41.497Z,7.65
2017-11-11T11:21:09.160Z,7.68
2017-11-11T11:23:36.801Z,7.68
2017-11-11T11:26:04.468Z,7.66
2017-11-11T11:28:32.094Z,7.66
2017-11-11T11:30:59.759Z,7.67
2017-11-11T11:33:27.383Z,7.66
2017-11-11T11:35:55.030Z,7.63
2017-11-11T11:38:22.654Z,7.60
2017-11-11T11:40:50.310Z,7.61
2017-11-11T11:43:17.928Z,7.66
2017-11-11T11:45:45.579Z,7.66
2017-11-11T11:48:13.189Z,7.71
2017-11-11T11:50:40.906Z,7.68
2017-11-11T11:53:08.548Z,7.65
2017-11-11T11:55:36.264Z,7.65
2017-11-11T11:58:03.903Z,7.70
2017-11-11T12:00:31.577Z,7.71
2017-11-11T12:02:59.214Z,7.74
2017-11-11T12:05:26.870Z,7.77
2017-11-11T12:07:54.490Z,7.77
2017-11-11T12:10:22.152Z,7.78
2017-11-11T12:12:49.773Z,7.83
2017-11-11T12:15:17.492Z,7.86
2017-11-11T12:17:45.127Z,7.87
2017-11-11T12:20:12.761Z,7.87
2017-11-11T12:22:40.427Z,7.89
2017-11-11T12:25:08.068Z,7.91
2017-11-11T12:27:35.724Z,7.93
2017-11-11T12:30:03.341Z,7.98
2017-11-11T12:32:31.005Z,8.02
2017-11-11T12:34:58.618Z,8.04
2017-11-11T12:37:26.287Z,8.09
2017-11-11T12:39:53.918Z,8.14
2017-11-11T12:42:21.585Z,8.17
2017-11-11T12:44:49.202Z,8.22
2017-11-11T12:47:16.866Z,8.25
2017-11-11T12:49:44.476Z,8.30
2017-11-11T12:52:12.169Z,8.33
2017-11-11T12:54:39.812Z,8.38
2017-11-11T12:57:07.493Z,8.43
2017-11-11T12:59:35.199Z,8.47
2017-11-11T13:02:02.857Z,8.47
2017-11-11T13:04:30.481Z,8.50
2017-11-11T13:06:58.123Z,8.52
2017-11-11T13:09:25.762Z,8.57
2017-11-11T13:11:53.429Z,8.59
2017-11-11T13:14:21.055Z,8.62
2017-11-11T13:16:48.752Z,8.65
2017-11-11T13:19:16.400Z,8.66
2017-11-11T13:21:44.031Z,8.71
2017-11-11T13:24:11.688Z,8.71
2017-11-11T13:26:39.340Z,8.73
2017-11-11T13:29:06.955Z,8.74
2017-11-11T13:31:34.679Z,8.67
2017-11-11T13:34:02.297Z,8.64
2017-11-11T13:36:29.955Z,8.68
2017-11-11T13:38:57.583Z,8.73
2017-11-11T13:41:25.226Z,8.76
2017-11-11T13:43:52.864Z,8.79
2017-11-11T13:46:20.536Z,8.78
2017-11-11T13:48:48.163Z,8.80
2017-11-11T13:51:15.800Z,8.78
2017-11-11T13:53:43.418Z,8.77
2017-11-11T13:56:11.098Z,8.80
2017-11-11T13:58:38.755Z,8.84
2017-11-11T14:01:06.430Z,8.79
2017-11-11T14:03:34.102Z,8.81
2017-11-11T14:06:01.779Z,8.87
2017-11-11T14:08:29.430Z,8.91
2017-11-11T14:10:57.103Z,8.92
2017-11-11T14:13:24.719Z,8.92
2017-11-11T14:15:52.454Z,8.98
2017-11-11T14:18:20.089Z,8.98
2017-11-11T14:20:47.765Z,8.94
2017-11-11T14:23:15.428Z,8.91
2017-11-11T14:25:43.084Z,8.90
2017-11-11T14:28:10.709Z,8.86
2017-11-11T14:30:38.355Z,8.80
2017-11-11T14:33:05.982Z,8.83
2017-11-11T14:35:33.642Z,8.83
2017-11-11T14:38:01.283Z,8.85
2017-11-11T14:40:28.952Z,8.86
2017-11-11T14:42:56.578Z,8.92
2017-11-11T14:45:24.242Z,8.97
2017-11-11T14:47:51.874Z,8.95
2017-11-11T14:50:19.628Z,8.97
2017-11-11T14:52:47.348Z,8.97
2017-11-11T14:55:15.007Z,9.01
2017-11-11T14:57:42.670Z,8.98
2017-11-11T15:00:10.344Z,8.97
2017-11-11T15:02:37.967Z,8.96
2017-11-11T15:05:05.590Z,8.97
2017-11-11T15:07:33.215Z,8.93
2017-11-11T15:10:00.924Z,8.90
2017-11-11T15:12:28.573Z,8.82
2017-11-11T15:14:56.255Z,8.83
2017-11-11T15:17:23.886Z,8.87
2017-11-11T15:19:51.542Z,8.85
2017-11-11T15:22:19.239Z,8.88
2017-11-11T15:24:46.926Z,8.90
2017-11-11T15:27:14.551Z,8.85
2017-11-11T15:29:42.224Z,8.85
2017-11-11T15:32:09.839Z,8.86
2017-11-11T15:34:37.510Z,8.95
2017-11-11T15:37:05.146Z,8.98
2017-11-11T15:39:32.861Z,8.94
2017-11-11T15:42:00.470Z,8.91
2017-11-11T15:44:28.131Z,8.91
2017-11-11T15:46:55.753Z,8.90
2017-11-11T15:49:23.368Z,8.91
2017-11-11T15:51:51.022Z,8.86
2017-11-11T15:54:18.779Z,8.85
2017-11-11T15:56:46.399Z,8.88
2017-11-11T15:59:14.021Z,8.85
2017-11-11T16:01:41.670Z,8.88
2017-11-11T16:04:09.306Z,8.87
2017-11-11T16:06:37.002Z,8.87
2017-11-11T16:09:04.605Z,8.88
2017-11-11T16:11:32.282Z,8.88
2017-11-11T16:13:59.917Z,8.88
2017-11-11T16:16:27.559Z,8.87
2017-11-11T16:18:55.236Z,8.85
2017-11-11T16:21:22.899Z,8.85
2017-11-11T16:23:50.522Z,8.86
2017-11-11T16:26:18.211Z,8.88
2017-11-11T16:28:45.847Z,8.90
2017-11-11T16:31:13.514Z,8.88
2017-11-11T16:33:41.125Z,8.85
2017-11-11T16:36:08.769Z,8.85
2017-11-11T16:38:36.389Z,8.83
2017-11-11T16:41:04.173Z,8.83
2017-11-11T16:43:31.804Z,8.83
2017-11-11T16:45:59.410Z,8.81
2017-11-11T16:48:27.053Z,8.82
2017-11-11T16:50:54.688Z,8.80
2017-11-11T16:53:22.335Z,8.78
2017-11-11T16:55:49.979Z,8.79
2017-11-11T16:58:17.640Z,8.81
2017-11-11T17:00:45.243Z,8.81
2017-11-11T17:03:12.903Z,8.80
2017-11-11T17:05:40.541Z,8.81
2017-11-11T17:08:08.178Z,8.80
2017-11-11T17:10:35.794Z,8.80
2017-11-11T17:13:03.472Z,8.81
2017-11-11T17:15:31.107Z,8.80
2017-11-11T17:17:58.798Z,8.81
2017-11-11T17:20:26.453Z,8.79
2017-11-11T17:22:54.167Z,8.82
2017-11-11T17:25:21.859Z,8.84
2017-11-11T17:27:49.462Z,8.84
2017-11-11T17:30:17.092Z,8.84
2017-11-11T17:32:44.738Z,8.82
2017-11-11T17:35:12.375Z,8.81
2017-11-11T17:37:40.022Z,8.79
2017-11-11T17:40:07.663Z,9.04
2017-11-11T17:42:35.343Z,9.16
2017-11-11T17:45:02.928Z,9.52
2017-11-11T17:47:30.690Z,10.06
2017-11-11T17:49:58.319Z,10.38
2017-11-11T17:52:25.984Z,10.62
2017-11-11T17:54:53.626Z,10.71
